createdAt,value
2019-01-26T00:01:44.620Z,83.80
2019-01-26T00:04:12.410Z,83.20
2019-01-26T00:06:40.179Z,83.80
2019-01-26T00:09:09.278Z,83.20
2019-01-26T00:11:37.024Z,82.70
2019-01-26T00:14:05.116Z,83.00
2019-01-26T00:16:32.922Z,84.00
2019-01-26T00:19:00.919Z,83.90
2019-01-26T00:21:28.684Z,83.60
2019-01-26T00:23:56.518Z,84.00
2019-01-26T00:26:24.316Z,84.30
2019-01-26T00:28:52.113Z,84.20
2019-01-26T00:31:19.893Z,84.30
2019-01-26T00:33:47.709Z,84.30
2019-01-26T00:36:15.444Z,84.30
2019-01-26T00:38:48.691Z,84.30
2019-01-26T00:41:35.935Z,84.30
2019-01-26T00:44:03.750Z,85.70
2019-01-26T00:46:31.540Z,84.40
2019-01-26T00:48:59.351Z,84.60
2019-01-26T00:51:27.168Z,84.40
2019-01-26T00:53:55.016Z,84.80
2019-01-26T00:56:22.807Z,84.30
2019-01-26T00:59:10.063Z,84.40
2019-01-26T01:01:37.928Z,86.10
2019-01-26T01:04:05.754Z,84.80
2019-01-26T01:06:33.507Z,84.00
2019-01-26T01:09:01.513Z,84.90
2019-01-26T01:11:29.318Z,85.00
2019-01-26T01:13:57.126Z,84.50
2019-01-26T01:16:24.873Z,85.30
2019-01-26T01:18:52.854Z,85.60
2019-01-26T01:21:20.609Z,84.60
2019-01-26T01:23:48.376Z,84.60
2019-01-26T01:26:16.169Z,85.30
2019-01-26T01:28:44.157Z,85.10
2019-01-26T01:31:11.944Z,85.20
2019-01-26T01:33:39.731Z,85.20
2019-01-26T01:36:07.543Z,84.70
2019-01-26T01:38:35.343Z,85.40
2019-01-26T01:41:03.098Z,85.40
2019-01-26T01:43:30.919Z,85.00
2019-01-26T01:45:58.732Z,85.30
2019-01-26T01:48:26.516Z,85.00
2019-01-26T01:50:54.325Z,85.20
2019-01-26T01:53:22.095Z,85.60
2019-01-26T01:55:49.825Z,85.90
2019-01-26T01:58:17.616Z,86.40
2019-01-26T02:00:45.428Z,86.00
2019-01-26T02:03:13.226Z,86.00
2019-01-26T02:05:40.986Z,86.70
2019-01-26T02:08:18.892Z,86.80
2019-01-26T02:10:46.620Z,86.20
2019-01-26T02:13:14.368Z,86.80
2019-01-26T02:15:42.174Z,87.00
2019-01-26T02:18:09.951Z,86.90
2019-01-26T02:20:37.730Z,87.40
2019-01-26T02:23:05.525Z,86.60
2019-01-26T02:25:33.284Z,86.80
2019-01-26T02:28:06.226Z,86.90
2019-01-26T02:30:34.021Z,86.80
2019-01-26T02:33:01.854Z,86.90
2019-01-26T02:35:30.983Z,86.90
2019-01-26T02:37:58.755Z,86.80
2019-01-26T02:40:26.515Z,87.50
2019-01-26T02:42:54.357Z,87.60
2019-01-26T02:45:22.134Z,87.40
2019-01-26T02:47:50.162Z,88.20
2019-01-26T02:50:17.920Z,88.60
2019-01-26T02:52:45.771Z,88.90
2019-01-26T02:55:13.703Z,89.30
2019-01-26T02:57:46.774Z,89.50
2019-01-26T03:00:18.174Z,89.10
2019-01-26T03:02:45.981Z,90.10
2019-01-26T03:05:14.211Z,89.50
2019-01-26T03:07:42.202Z,89.90
2019-01-26T03:10:12.799Z,89.90
2019-01-26T03:12:40.606Z,90.00
2019-01-26T03:15:10.951Z,90.10
2019-01-26T03:17:38.997Z,89.90
2019-01-26T03:20:08.966Z,90.00
2019-01-26T03:22:36.748Z,90.30
2019-01-26T03:25:05.513Z,90.20
2019-01-26T03:27:33.419Z,90.40
2019-01-26T03:30:01.213Z,90.40
2019-01-26T03:32:29.515Z,90.40
2019-01-26T03:34:57.333Z,90.90
2019-01-26T03:37:25.420Z,90.50
2019-01-26T03:39:53.203Z,90.80
2019-01-26T03:42:21.053Z,91.10
2019-01-26T03:44:48.807Z,91.20
2019-01-26T03:47:16.623Z,91.40
2019-01-26T03:49:44.422Z,91.40
2019-01-26T03:52:12.217Z,91.50
2019-01-26T03:54:39.949Z,91.50
2019-01-26T03:57:07.735Z,91.70
2019-01-26T03:59:35.519Z,91.90
2019-01-26T04:02:03.484Z,91.70
2019-01-26T04:04:31.245Z,91.90
2019-01-26T04:06:59.028Z,92.10
2019-01-26T04:09:27.017Z,92.30
2019-01-26T04:11:54.840Z,92.30
2019-01-26T04:14:22.635Z,92.30
2019-01-26T04:16:50.423Z,92.30
2019-01-26T04:19:18.215Z,92.40
2019-01-26T04:21:46.613Z,92.30
2019-01-26T04:24:14.392Z,92.30
2019-01-26T04:26:42.231Z,92.00
2019-01-26T04:29:11.404Z,91.90
2019-01-26T04:31:39.541Z,91.70
2019-01-26T04:34:26.780Z,91.70
2019-01-26T04:36:54.531Z,92.10
2019-01-26T04:39:22.587Z,91.40
2019-01-26T04:41:50.346Z,91.40
2019-01-26T04:44:18.136Z,91.50
2019-01-26T04:46:45.907Z,91.70
2019-01-26T04:49:13.940Z,91.60
2019-01-26T04:51:41.771Z,91.70
2019-01-26T04:54:09.959Z,91.70
2019-01-26T04:56:37.763Z,91.80
2019-01-26T04:59:05.603Z,91.80
2019-01-26T05:01:33.443Z,91.70
2019-01-26T05:04:01.217Z,92.10
2019-01-26T05:06:28.950Z,91.60
2019-01-26T05:08:56.727Z,91.50
2019-01-26T05:11:24.473Z,91.50
2019-01-26T05:13:52.307Z,91.60
2019-01-26T05:16:20.076Z,91.90
2019-01-26T05:18:47.862Z,91.80
2019-01-26T05:21:15.625Z,92.40
2019-01-26T05:23:43.446Z,92.20
2019-01-26T05:26:11.200Z,92.30
2019-01-26T05:28:39.080Z,92.10
2019-01-26T05:31:06.872Z,92.20
2019-01-26T05:33:34.664Z,92.20
2019-01-26T05:36:02.423Z,92.40
2019-01-26T05:38:30.509Z,92.40
2019-01-26T05:40:58.247Z,92.40
2019-01-26T05:43:26.039Z,92.40
2019-01-26T05:45:53.786Z,92.50
2019-01-26T05:48:21.828Z,92.80
2019-01-26T05:50:49.676Z,92.70
2019-01-26T05:53:17.421Z,92.60
2019-01-26T05:55:45.282Z,93.10
2019-01-26T05:58:13.178Z,93.00
2019-01-26T06:00:40.970Z,92.90
2019-01-26T06:03:08.736Z,92.50
2019-01-26T06:05:36.496Z,92.50
2019-01-26T06:08:04.528Z,92.60
2019-01-26T06:10:32.322Z,92.60
2019-01-26T06:13:00.113Z,92.50
2019-01-26T06:15:27.921Z,92.60
2019-01-26T06:17:55.994Z,92.70
2019-01-26T06:20:23.779Z,92.90
2019-01-26T06:22:51.700Z,93.10
2019-01-26T06:25:21.097Z,93.40
2019-01-26T06:27:48.864Z,93.50
2019-01-26T06:30:19.735Z,93.60
2019-01-26T06:32:47.486Z,93.60
2019-01-26T06:35:15.346Z,93.90
2019-01-26T06:37:43.723Z,94.20
2019-01-26T06:40:13.741Z,94.30
2019-01-26T06:42:41.499Z,94.80
2019-01-26T06:45:10.403Z,94.30
2019-01-26T06:47:38.207Z,94.60
2019-01-26T06:50:08.880Z,94.50
2019-01-26T06:52:36.657Z,94.60
2019-01-26T06:55:06.362Z,94.70
2019-01-26T06:57:34.178Z,94.80
2019-01-26T07:00:01.993Z,94.80
2019-01-26T07:02:29.824Z,94.80
2019-01-26T07:05:02.984Z,94.80
2019-01-26T07:07:30.883Z,94.80
2019-01-26T07:09:58.673Z,94.50
2019-01-26T07:12:26.527Z,94.30
2019-01-26T07:14:54.349Z,94.20
2019-01-26T07:17:22.963Z,94.10
2019-01-26T07:19:50.738Z,94.80
2019-01-26T07:22:18.572Z,94.80
2019-01-26T07:24:46.373Z,94.80
2019-01-26T07:27:14.189Z,94.60
2019-01-26T07:29:42.059Z,94.40
2019-01-26T07:32:09.867Z,94.30
2019-01-26T07:34:37.702Z,94.70
2019-01-26T07:37:05.458Z,94.30
2019-01-26T07:39:33.255Z,93.90
2019-01-26T07:42:01.065Z,94.00
2019-01-26T07:44:28.861Z,94.10
2019-01-26T07:46:56.715Z,93.70
2019-01-26T07:49:24.715Z,94.20
2019-01-26T07:51:52.596Z,94.00
2019-01-26T07:54:20.400Z,93.80
2019-01-26T07:56:48.207Z,93.80
2019-01-26T07:59:16.097Z,93.90
2019-01-26T08:01:44.217Z,94.00
2019-01-26T08:04:12.064Z,94.00
2019-01-26T08:06:39.876Z,93.90
2019-01-26T08:09:08.467Z,93.60
2019-01-26T08:11:36.270Z,94.20
2019-01-26T08:14:06.229Z,94.40
2019-01-26T08:16:38.450Z,94.30
2019-01-26T08:19:08.942Z,95.00
2019-01-26T08:21:36.720Z,94.30
2019-01-26T08:24:04.724Z,94.50
2019-01-26T08:26:32.537Z,94.70
2019-01-26T08:29:00.330Z,94.40
2019-01-26T08:31:28.194Z,94.50
2019-01-26T08:33:55.956Z,94.30
2019-01-26T08:36:23.775Z,93.60
2019-01-26T08:38:53.550Z,92.90
2019-01-26T08:41:21.434Z,93.10
2019-01-26T08:43:49.236Z,93.70
2019-01-26T08:46:17.061Z,92.90
2019-01-26T08:48:50.177Z,93.50
2019-01-26T08:51:18.003Z,93.70
2019-01-26T08:53:45.809Z,93.80
2019-01-26T08:56:13.634Z,93.80
2019-01-26T08:58:46.463Z,93.80
2019-01-26T09:01:14.265Z,93.40
2019-01-26T09:03:50.245Z,93.90
2019-01-26T09:06:28.206Z,93.70
2019-01-26T09:09:01.471Z,93.70
2019-01-26T09:11:29.275Z,93.50
2019-01-26T09:13:57.095Z,94.30
2019-01-26T09:16:25.008Z,94.20
2019-01-26T09:18:52.792Z,94.20
2019-01-26T09:21:20.582Z,94.70
2019-01-26T09:23:48.371Z,94.60
2019-01-26T09:26:16.121Z,94.50
2019-01-26T09:28:43.900Z,94.30
2019-01-26T09:31:11.669Z,93.80
2019-01-26T09:33:39.522Z,94.20
2019-01-26T09:36:07.344Z,94.00
2019-01-26T09:38:35.557Z,93.90
2019-01-26T09:41:03.865Z,94.20
2019-01-26T09:43:31.680Z,93.60
2019-01-26T09:45:59.859Z,93.00
2019-01-26T09:48:27.811Z,93.90
2019-01-26T09:50:55.624Z,93.80
2019-01-26T09:53:23.462Z,93.40
2019-01-26T09:55:51.333Z,93.10
2019-01-26T09:58:24.230Z,93.20
2019-01-26T10:00:52.096Z,93.10
2019-01-26T10:03:19.953Z,92.90
2019-01-26T10:05:47.715Z,93.10
2019-01-26T10:08:53.360Z,93.10
2019-01-26T10:11:21.163Z,93.10
2019-01-26T10:13:49.021Z,93.30
2019-01-26T10:16:16.888Z,93.50
2019-01-26T10:18:59.984Z,93.10
2019-01-26T10:21:27.843Z,93.40
2019-01-26T10:23:55.635Z,93.40
2019-01-26T10:26:23.428Z,92.80
2019-01-26T10:28:51.313Z,93.10
2019-01-26T10:31:19.109Z,93.00
2019-01-26T10:33:46.980Z,92.60
2019-01-26T10:36:23.098Z,92.10
2019-01-26T10:39:22.723Z,92.90
2019-01-26T10:42:16.139Z,92.30
2019-01-26T10:44:44.748Z,92.10
2019-01-26T10:47:12.554Z,91.70
2019-01-26T10:49:40.402Z,92.30
2019-01-26T10:52:08.381Z,92.00
2019-01-26T10:54:36.250Z,91.50
2019-01-26T10:57:04.908Z,91.00
2019-01-26T10:59:32.743Z,91.40
2019-01-26T11:02:00.608Z,91.10
2019-01-26T11:04:28.404Z,91.00
2019-01-26T11:06:56.245Z,91.00
2019-01-26T11:09:24.088Z,91.10
2019-01-26T11:11:51.883Z,91.30
2019-01-26T11:14:19.766Z,91.10
2019-01-26T11:16:47.533Z,91.00
2019-01-26T11:19:15.477Z,91.00
2019-01-26T11:21:43.311Z,91.10
2019-01-26T11:24:11.148Z,91.00
2019-01-26T11:26:38.956Z,91.00
2019-01-26T11:29:06.785Z,91.30
2019-01-26T11:31:35.393Z,91.10
2019-01-26T11:34:04.181Z,91.00
2019-01-26T11:36:31.990Z,91.10
2019-01-26T11:39:00.046Z,91.00
2019-01-26T11:41:27.840Z,90.90
2019-01-26T11:43:55.729Z,90.70
2019-01-26T11:46:28.050Z,90.60
2019-01-26T11:48:57.188Z,90.20
2019-01-26T11:52:03.119Z,90.20
2019-01-26T11:54:30.950Z,89.60
2019-01-26T11:57:15.523Z,89.80
2019-01-26T11:59:45.362Z,89.00
2019-01-26T12:02:29.907Z,89.40
2019-01-26T12:05:13.468Z,88.00
2019-01-26T12:07:56.423Z,89.10
2019-01-26T12:10:24.431Z,87.90
2019-01-26T12:12:52.216Z,89.20
2019-01-26T12:15:20.079Z,88.80
2019-01-26T12:17:48.021Z,88.00
2019-01-26T12:20:34.320Z,88.00
2019-01-26T12:23:02.760Z,88.10
2019-01-26T12:25:30.649Z,88.00
2019-01-26T12:27:58.735Z,88.00
2019-01-26T12:30:26.666Z,88.70
2019-01-26T12:32:54.548Z,88.10
2019-01-26T12:35:22.441Z,88.00
2019-01-26T12:37:50.699Z,88.00
2019-01-26T12:40:18.648Z,88.20
2019-01-26T12:42:46.554Z,89.10
2019-01-26T12:45:17.122Z,88.00
2019-01-26T12:47:45.023Z,88.00
2019-01-26T12:50:12.949Z,88.00
2019-01-26T12:52:40.860Z,88.00
2019-01-26T12:55:10.926Z,88.10
2019-01-26T12:57:38.776Z,88.10
2019-01-26T13:00:14.145Z,88.10
2019-01-26T13:02:41.976Z,88.20
2019-01-26T13:05:09.776Z,87.60
2019-01-26T13:07:37.735Z,87.60
2019-01-26T13:10:12.000Z,87.80
2019-01-26T13:12:39.859Z,85.70
2019-01-26T13:15:15.029Z,88.20
2019-01-26T13:17:42.685Z,88.20
2019-01-26T13:20:12.588Z,88.30
2019-01-26T13:22:40.401Z,86.90
2019-01-26T13:25:10.077Z,86.90
2019-01-26T13:27:37.960Z,88.10
2019-01-26T13:30:11.295Z,87.30
2019-01-26T13:32:39.113Z,88.30
2019-01-26T13:35:07.126Z,87.50
2019-01-26T13:38:06.603Z,87.80
2019-01-26T13:40:38.495Z,87.70
2019-01-26T13:43:09.575Z,87.60
2019-01-26T13:45:42.591Z,86.00
2019-01-26T13:48:13.761Z,88.10
2019-01-26T13:50:42.039Z,87.90
2019-01-26T13:53:09.980Z,87.60
2019-01-26T13:55:41.072Z,87.20
2019-01-26T13:58:10.032Z,88.00
2019-01-26T14:00:38.519Z,87.50
2019-01-26T14:03:06.502Z,87.10
2019-01-26T14:05:35.534Z,87.50
2019-01-26T14:08:03.590Z,87.40
2019-01-26T14:10:31.395Z,88.20
2019-01-26T14:12:59.272Z,87.50
2019-01-26T14:15:30.377Z,87.90
2019-01-26T14:17:58.309Z,86.90
2019-01-26T14:20:26.499Z,86.60
2019-01-26T14:22:54.752Z,86.40
2019-01-26T14:25:22.723Z,86.90
2019-01-26T14:27:53.656Z,86.90
2019-01-26T14:30:29.473Z,88.00
2019-01-26T14:32:57.457Z,86.80
2019-01-26T14:35:29.884Z,86.60
2019-01-26T14:38:05.858Z,86.60
2019-01-26T14:40:36.869Z,86.80
2019-01-26T14:43:04.941Z,86.60
2019-01-26T14:45:32.778Z,86.70
2019-01-26T14:48:00.822Z,87.00
2019-01-26T14:50:28.730Z,86.60
2019-01-26T14:52:56.652Z,86.50
2019-01-26T14:55:25.290Z,86.70
2019-01-26T14:57:53.923Z,87.10
2019-01-26T15:00:28.592Z,87.70
2019-01-26T15:02:56.413Z,87.50
2019-01-26T15:05:25.772Z,86.80
2019-01-26T15:07:57.433Z,86.60
2019-01-26T15:10:25.490Z,87.10
2019-01-26T15:12:53.665Z,87.80
2019-01-26T15:15:26.312Z,87.00
2019-01-26T15:17:57.516Z,86.30
2019-01-26T15:20:28.988Z,87.80
2019-01-26T15:22:56.790Z,87.30
2019-01-26T15:25:27.650Z,87.50
2019-01-26T15:27:55.570Z,87.50
2019-01-26T15:30:27.312Z,87.10
2019-01-26T15:32:55.262Z,87.30
2019-01-26T15:35:23.134Z,86.90
2019-01-26T15:37:50.992Z,86.80
2019-01-26T15:40:19.086Z,86.90
2019-01-26T15:42:47.023Z,87.20
2019-01-26T15:45:21.850Z,87.20
2019-01-26T15:47:49.656Z,86.90
2019-01-26T15:50:17.783Z,87.10
2019-01-26T15:52:45.649Z,87.80
2019-01-26T15:55:16.085Z,87.30
2019-01-26T15:57:43.929Z,87.30
2019-01-26T16:00:23.853Z,87.40
2019-01-26T16:02:58.118Z,87.70
2019-01-26T16:05:25.908Z,87.90
2019-01-26T16:07:54.334Z,87.60
2019-01-26T16:10:22.591Z,87.10
2019-01-26T16:12:51.040Z,87.20
2019-01-26T16:15:38.810Z,87.30
2019-01-26T16:18:11.253Z,88.30
2019-01-26T16:20:39.073Z,87.50
2019-01-26T16:23:09.536Z,87.10
2019-01-26T16:25:36.558Z,87.20
2019-01-26T16:28:09.827Z,88.00
2019-01-26T16:30:37.721Z,88.00
2019-01-26T16:33:05.504Z,88.00
2019-01-26T16:35:33.302Z,88.00
2019-01-26T16:38:01.162Z,88.00
2019-01-26T16:40:31.848Z,88.00
2019-01-26T16:42:59.690Z,88.00
2019-01-26T16:45:30.919Z,88.00
2019-01-26T16:47:58.920Z,88.10
2019-01-26T16:50:28.265Z,87.40
2019-01-26T16:52:56.443Z,87.30
2019-01-26T16:55:24.210Z,86.40
2019-01-26T16:57:57.350Z,87.50
2019-01-26T17:00:35.830Z,87.40
2019-01-26T17:03:04.553Z,87.40
2019-01-26T17:05:32.344Z,87.90
2019-01-26T17:08:00.545Z,86.90
2019-01-26T17:10:35.930Z,88.00
2019-01-26T17:13:03.935Z,88.10
2019-01-26T17:15:31.731Z,88.00
2019-01-26T17:17:59.570Z,88.00
2019-01-26T17:20:34.793Z,88.00
2019-01-26T17:22:58.785Z,88.00
2019-01-26T17:25:46.044Z,88.00
2019-01-26T17:28:14.028Z,89.70
2019-01-26T17:30:43.142Z,88.00
2019-01-26T17:33:10.944Z,88.00
2019-01-26T17:35:38.790Z,87.90
2019-01-26T17:38:31.340Z,87.90
2019-01-26T17:40:59.194Z,87.10
2019-01-26T17:43:36.162Z,86.80
2019-01-26T17:46:04.307Z,86.50
2019-01-26T17:48:35.203Z,86.40
2019-01-26T17:51:03.114Z,87.90
2019-01-26T17:53:30.964Z,86.50
2019-01-26T17:55:58.856Z,86.50
2019-01-26T17:58:26.710Z,86.00
2019-01-26T18:00:56.762Z,86.30
2019-01-26T18:03:24.659Z,86.20
2019-01-26T18:05:52.460Z,86.40
2019-01-26T18:08:20.350Z,86.30
2019-01-26T18:10:48.164Z,86.10
2019-01-26T18:13:16.123Z,85.70
2019-01-26T18:15:43.922Z,85.60
2019-01-26T18:18:11.845Z,85.70
2019-01-26T18:20:39.680Z,85.70
2019-01-26T18:23:07.622Z,85.60
2019-01-26T18:25:39.532Z,85.90
2019-01-26T18:28:07.428Z,86.20
2019-01-26T18:30:36.552Z,86.60
2019-01-26T18:33:09.647Z,86.90
2019-01-26T18:35:37.849Z,86.80
2019-01-26T18:38:10.542Z,86.50
2019-01-26T18:40:41.225Z,86.50
2019-01-26T18:43:12.609Z,86.90
2019-01-26T18:45:40.460Z,86.80
2019-01-26T18:48:12.362Z,87.40
2019-01-26T18:50:43.014Z,87.20
2019-01-26T18:53:11.722Z,87.60
2019-01-26T18:55:42.762Z,87.50
2019-01-26T18:58:10.868Z,87.60
2019-01-26T19:00:45.878Z,87.00
2019-01-26T19:04:21.036Z,86.80
2019-01-26T19:06:54.512Z,87.00
2019-01-26T19:09:34.310Z,87.00
2019-01-26T19:12:02.251Z,87.60
2019-01-26T19:14:33.325Z,87.70
2019-01-26T19:17:01.293Z,88.20
2019-01-26T19:19:29.078Z,87.90
2019-01-26T19:21:56.852Z,88.00
2019-01-26T19:24:25.717Z,87.90
2019-01-26T19:26:53.561Z,87.90
2019-01-26T19:29:26.521Z,88.40
2019-01-26T19:31:55.638Z,89.00
2019-01-26T19:34:23.928Z,89.50
2019-01-26T19:36:52.893Z,90.30
2019-01-26T19:39:24.922Z,90.80
2019-01-26T19:41:54.192Z,90.80
2019-01-26T19:44:22.408Z,90.90
2019-01-26T19:46:51.772Z,91.00
2019-01-26T19:49:19.844Z,91.20
2019-01-26T19:51:47.742Z,91.00
2019-01-26T19:54:22.956Z,91.20
2019-01-26T19:56:52.225Z,91.50
2019-01-26T19:59:20.121Z,91.70
2019-01-26T20:01:47.966Z,91.20
2019-01-26T20:04:15.809Z,91.20
2019-01-26T20:06:43.682Z,91.20
2019-01-26T20:09:11.857Z,91.20
2019-01-26T20:11:39.778Z,91.30
2019-01-26T20:14:07.751Z,91.10
2019-01-26T20:16:36.464Z,91.40
2019-01-26T20:19:04.637Z,91.10
2019-01-26T20:21:32.481Z,91.20
2019-01-26T20:24:01.113Z,91.10
2019-01-26T20:26:28.939Z,91.60
2019-01-26T20:28:56.951Z,91.40
2019-01-26T20:31:24.757Z,91.40
2019-01-26T20:33:52.756Z,91.20
2019-01-26T20:36:20.657Z,91.20
2019-01-26T20:38:48.546Z,91.20
2019-01-26T20:41:16.388Z,91.10
2019-01-26T20:43:44.298Z,91.20
2019-01-26T20:46:12.084Z,90.90
2019-01-26T20:48:40.021Z,91.20
2019-01-26T20:51:07.927Z,91.20
2019-01-26T20:53:35.806Z,90.90
2019-01-26T20:56:03.750Z,90.80
2019-01-26T20:58:31.588Z,90.80
2019-01-26T21:00:59.592Z,90.80
2019-01-26T21:03:27.389Z,90.70
2019-01-26T21:05:55.194Z,90.70
2019-01-26T21:08:33.103Z,91.00
2019-01-26T21:11:00.945Z,90.90
2019-01-26T21:13:28.830Z,91.20
2019-01-26T21:15:56.589Z,91.20
2019-01-26T21:18:29.698Z,91.20
2019-01-26T21:20:57.498Z,91.20
2019-01-26T21:23:25.355Z,91.20
2019-01-26T21:25:53.172Z,91.20
2019-01-26T21:28:21.030Z,91.20
2019-01-26T21:30:48.868Z,91.20
2019-01-26T21:33:17.191Z,91.20
2019-01-26T21:35:45.004Z,91.20
2019-01-26T21:38:12.971Z,91.00
2019-01-26T21:40:40.798Z,90.40
2019-01-26T21:43:08.655Z,90.80
2019-01-26T21:45:36.497Z,90.80
2019-01-26T21:48:04.560Z,90.50
2019-01-26T21:50:32.417Z,90.50
2019-01-26T21:53:00.258Z,90.10
2019-01-26T21:55:28.239Z,90.40
2019-01-26T21:58:01.387Z,90.10
2019-01-26T22:00:31.954Z,90.10
2019-01-26T22:03:00.770Z,90.10
2019-01-26T22:05:28.682Z,89.30
2019-01-26T22:07:57.510Z,89.50
2019-01-26T22:10:25.790Z,88.70
2019-01-26T22:12:53.606Z,88.60
2019-01-26T22:15:22.321Z,88.70
2019-01-26T22:17:50.426Z,88.60
2019-01-26T22:20:23.618Z,88.00
2019-01-26T22:22:51.441Z,88.00
2019-01-26T22:25:19.738Z,87.80
2019-01-26T22:27:47.536Z,87.90
2019-01-26T22:30:21.111Z,87.90
2019-01-26T22:32:48.968Z,87.90
2019-01-26T22:35:16.721Z,88.20
2019-01-26T22:38:04.211Z,88.00
2019-01-26T22:40:34.404Z,87.90
2019-01-26T22:43:02.632Z,88.30
2019-01-26T22:45:30.549Z,88.70
2019-01-26T22:47:58.303Z,88.70
2019-01-26T22:50:26.532Z,88.50
2019-01-26T22:52:54.350Z,89.50
2019-01-26T22:55:22.163Z,89.60
2019-01-26T22:57:50.223Z,90.00
2019-01-26T23:00:51.945Z,90.20
2019-01-26T23:03:35.082Z,90.60
2019-01-26T23:06:43.445Z,90.60
2019-01-26T23:09:54.193Z,90.50
2019-01-26T23:13:12.874Z,90.50
2019-01-26T23:16:29.138Z,90.80
2019-01-26T23:19:34.285Z,91.00
2019-01-26T23:22:45.750Z,91.20
2019-01-26T23:26:14.175Z,91.30
2019-01-26T23:29:36.941Z,91.20
2019-01-26T23:32:04.754Z,91.40
2019-01-26T23:34:32.621Z,91.60
2019-01-26T23:37:00.469Z,92.00
2019-01-26T23:39:28.305Z,92.00
2019-01-26T23:41:56.051Z,92.00
2019-01-26T23:44:23.912Z,92.10
2019-01-26T23:46:51.727Z,92.30
2019-01-26T23:49:39.061Z,92.20
2019-01-26T23:52:06.834Z,92.80
2019-01-26T23:54:54.122Z,92.20
2019-01-26T23:57:21.927Z,92.40
2019-01-26T23:59:49.737Z,92.50
